sensor_id;sensor_type;location;lat;lon;timestamp;P1;durP1;ratioP1;P2;durP2;ratioP2
59950;SDS011;45812;53.540;9.774;2024-02-21T00:00:27;33.40;;;13.05;;
59950;SDS011;45812;53.540;9.774;2024-02-21T00:02:53;32.50;;;12.45;;
59950;SDS011;45812;53.540;9.774;2024-02-21T00:05:18;35.25;;;12.90;;
59950;SDS011;45812;53.540;9.774;2024-02-21T00:07:43;35.58;;;13.48;;
59950;SDS011;45812;53.540;9.774;2024-02-21T00:10:08;28.20;;;12.00;;
59950;SDS011;45812;53.540;9.774;2024-02-21T00:12:34;38.38;;;13.57;;
59950;SDS011;45812;53.540;9.774;2024-02-21T00:14:59;33.70;;;13.75;;
59950;SDS011;45812;53.540;9.774;2024-02-21T00:17:25;33.53;;;13.65;;
59950;SDS011;45812;53.540;9.774;2024-02-21T00:19:51;30.15;;;12.25;;
59950;SDS011;45812;53.540;9.774;2024-02-21T00:22:16;39.10;;;14.23;;
59950;SDS011;45812;53.540;9.774;2024-02-21T00:24:41;35.35;;;13.95;;
59950;SDS011;45812;53.540;9.774;2024-02-21T00:27:07;34.10;;;14.40;;
59950;SDS011;45812;53.540;9.774;2024-02-21T00:29:32;36.13;;;14.07;;
59950;SDS011;45812;53.540;9.774;2024-02-21T00:31:57;30.92;;;13.32;;
59950;SDS011;45812;53.540;9.774;2024-02-21T00:34:22;34.67;;;13.60;;
59950;SDS011;45812;53.540;9.774;2024-02-21T00:36:48;34.80;;;15.05;;
59950;SDS011;45812;53.540;9.774;2024-02-21T00:39:13;30.65;;;13.43;;
59950;SDS011;45812;53.540;9.774;2024-02-21T00:41:38;32.83;;;14.05;;
59950;SDS011;45812;53.540;9.774;2024-02-21T00:44:03;33.92;;;14.55;;
59950;SDS011;45812;53.540;9.774;2024-02-21T00:46:30;30.08;;;12.30;;
59950;SDS011;45812;53.540;9.774;2024-02-21T00:48:56;29.58;;;13.52;;
59950;SDS011;45812;53.540;9.774;2024-02-21T00:51:21;28.92;;;12.63;;
59950;SDS011;45812;53.540;9.774;2024-02-21T00:53:46;35.90;;;14.52;;
59950;SDS011;45812;53.540;9.774;2024-02-21T00:56:11;32.80;;;13.95;;
59950;SDS011;45812;53.540;9.774;2024-02-21T00:58:36;31.88;;;13.75;;
59950;SDS011;45812;53.540;9.774;2024-02-21T01:01:02;30.75;;;12.65;;
59950;SDS011;45812;53.540;9.774;2024-02-21T01:03:28;32.55;;;12.55;;
59950;SDS011;45812;53.540;9.774;2024-02-21T01:05:53;36.08;;;14.10;;
59950;SDS011;45812;53.540;9.774;2024-02-21T01:08:18;29.63;;;14.23;;
59950;SDS011;45812;53.540;9.774;2024-02-21T01:10:43;32.25;;;12.15;;
59950;SDS011;45812;53.540;9.774;2024-02-21T01:13:09;30.70;;;12.70;;
59950;SDS011;45812;53.540;9.774;2024-02-21T01:15:34;29.60;;;11.35;;
59950;SDS011;45812;53.540;9.774;2024-02-21T01:18:00;32.88;;;12.90;;
59950;SDS011;45812;53.540;9.774;2024-02-21T01:20:25;28.67;;;11.57;;
59950;SDS011;45812;53.540;9.774;2024-02-21T01:22:51;35.58;;;12.63;;
59950;SDS011;45812;53.540;9.774;2024-02-21T01:25:16;32.33;;;12.48;;
59950;SDS011;45812;53.540;9.774;2024-02-21T01:27:41;30.45;;;11.32;;
59950;SDS011;45812;53.540;9.774;2024-02-21T01:30:07;26.95;;;11.73;;
59950;SDS011;45812;53.540;9.774;2024-02-21T01:32:32;31.27;;;13.00;;
59950;SDS011;45812;53.540;9.774;2024-02-21T01:34:58;30.95;;;12.40;;
59950;SDS011;45812;53.540;9.774;2024-02-21T01:37:23;27.75;;;12.35;;
59950;SDS011;45812;53.540;9.774;2024-02-21T01:39:48;21.90;;;10.50;;
59950;SDS011;45812;53.540;9.774;2024-02-21T01:42:14;30.23;;;11.88;;
59950;SDS011;45812;53.540;9.774;2024-02-21T01:44:39;35.13;;;13.35;;
59950;SDS011;45812;53.540;9.774;2024-02-21T01:47:05;30.55;;;12.43;;
59950;SDS011;45812;53.540;9.774;2024-02-21T01:49:30;32.75;;;13.98;;
59950;SDS011;45812;53.540;9.774;2024-02-21T01:51:55;33.38;;;14.30;;
59950;SDS011;45812;53.540;9.774;2024-02-21T01:54:21;29.85;;;13.70;;
59950;SDS011;45812;53.540;9.774;2024-02-21T01:56:46;31.30;;;13.18;;
59950;SDS011;45812;53.540;9.774;2024-02-21T01:59:13;31.63;;;14.18;;
59950;SDS011;45812;53.540;9.774;2024-02-21T02:01:40;33.30;;;14.60;;
59950;SDS011;45812;53.540;9.774;2024-02-21T02:04:06;31.10;;;13.93;;
59950;SDS011;45812;53.540;9.774;2024-02-21T02:06:32;38.28;;;14.60;;
59950;SDS011;45812;53.540;9.774;2024-02-21T02:08:57;33.63;;;14.50;;
59950;SDS011;45812;53.540;9.774;2024-02-21T02:11:23;34.15;;;13.90;;
59950;SDS011;45812;53.540;9.774;2024-02-21T02:13:48;34.70;;;13.93;;
59950;SDS011;45812;53.540;9.774;2024-02-21T02:16:13;35.85;;;15.05;;
59950;SDS011;45812;53.540;9.774;2024-02-21T02:18:38;34.53;;;15.18;;
59950;SDS011;45812;53.540;9.774;2024-02-21T02:21:04;32.63;;;13.98;;
59950;SDS011;45812;53.540;9.774;2024-02-21T02:23:38;31.45;;;14.48;;
59950;SDS011;45812;53.540;9.774;2024-02-21T02:26:05;33.00;;;15.52;;
59950;SDS011;45812;53.540;9.774;2024-02-21T02:28:32;28.70;;;12.85;;
59950;SDS011;45812;53.540;9.774;2024-02-21T02:30:57;43.33;;;17.40;;
59950;SDS011;45812;53.540;9.774;2024-02-21T02:33:22;35.85;;;17.17;;
59950;SDS011;45812;53.540;9.774;2024-02-21T02:35:48;35.83;;;16.35;;
59950;SDS011;45812;53.540;9.774;2024-02-21T02:38:13;39.75;;;16.77;;
59950;SDS011;45812;53.540;9.774;2024-02-21T02:40:38;42.50;;;18.95;;
59950;SDS011;45812;53.540;9.774;2024-02-21T02:43:05;42.45;;;17.77;;
59950;SDS011;45812;53.540;9.774;2024-02-21T02:45:31;45.63;;;16.98;;
59950;SDS011;45812;53.540;9.774;2024-02-21T02:47:56;41.10;;;16.95;;
59950;SDS011;45812;53.540;9.774;2024-02-21T02:50:22;38.13;;;17.55;;
59950;SDS011;45812;53.540;9.774;2024-02-21T02:52:50;36.70;;;16.45;;
59950;SDS011;45812;53.540;9.774;2024-02-21T02:55:15;37.35;;;17.38;;
59950;SDS011;45812;53.540;9.774;2024-02-21T02:57:41;39.80;;;18.30;;
59950;SDS011;45812;53.540;9.774;2024-02-21T03:00:07;40.38;;;19.35;;
59950;SDS011;45812;53.540;9.774;2024-02-21T03:02:33;36.92;;;16.88;;
59950;SDS011;45812;53.540;9.774;2024-02-21T03:04:58;38.85;;;16.55;;
59950;SDS011;45812;53.540;9.774;2024-02-21T03:07:24;43.65;;;19.25;;
59950;SDS011;45812;53.540;9.774;2024-02-21T03:09:50;35.08;;;17.10;;
59950;SDS011;45812;53.540;9.774;2024-02-21T03:12:15;41.55;;;17.23;;
59950;SDS011;45812;53.540;9.774;2024-02-21T03:14:49;33.60;;;15.50;;
59950;SDS011;45812;53.540;9.774;2024-02-21T03:17:14;37.65;;;17.67;;
59950;SDS011;45812;53.540;9.774;2024-02-21T03:19:39;37.30;;;16.95;;
59950;SDS011;45812;53.540;9.774;2024-02-21T03:22:04;34.25;;;16.00;;
59950;SDS011;45812;53.540;9.774;2024-02-21T03:24:31;45.95;;;18.42;;
59950;SDS011;45812;53.540;9.774;2024-02-21T03:26:56;33.45;;;15.45;;
59950;SDS011;45812;53.540;9.774;2024-02-21T03:29:21;37.08;;;17.30;;
59950;SDS011;45812;53.540;9.774;2024-02-21T03:31:47;42.53;;;16.13;;
59950;SDS011;45812;53.540;9.774;2024-02-21T03:34:12;37.13;;;16.83;;
59950;SDS011;45812;53.540;9.774;2024-02-21T03:36:37;32.00;;;15.05;;
59950;SDS011;45812;53.540;9.774;2024-02-21T03:39:02;41.40;;;16.73;;
59950;SDS011;45812;53.540;9.774;2024-02-21T03:41:28;33.38;;;14.15;;
59950;SDS011;45812;53.540;9.774;2024-02-21T03:43:54;34.78;;;15.85;;
59950;SDS011;45812;53.540;9.774;2024-02-21T03:46:19;32.67;;;14.38;;
59950;SDS011;45812;53.540;9.774;2024-02-21T03:48:44;33.38;;;14.88;;
59950;SDS011;45812;53.540;9.774;2024-02-21T03:51:10;34.35;;;15.15;;
59950;SDS011;45812;53.540;9.774;2024-02-21T03:53:35;30.95;;;14.35;;
59950;SDS011;45812;53.540;9.774;2024-02-21T03:56:04;34.22;;;14.43;;
59950;SDS011;45812;53.540;9.774;2024-02-21T03:58:29;35.00;;;15.68;;
59950;SDS011;45812;53.540;9.774;2024-02-21T04:00:55;37.25;;;16.27;;
59950;SDS011;45812;53.540;9.774;2024-02-21T04:03:20;28.33;;;13.90;;
59950;SDS011;45812;53.540;9.774;2024-02-21T04:05:46;35.97;;;14.85;;
59950;SDS011;45812;53.540;9.774;2024-02-21T04:08:11;38.33;;;14.75;;
59950;SDS011;45812;53.540;9.774;2024-02-21T04:10:36;31.15;;;14.68;;
59950;SDS011;45812;53.540;9.774;2024-02-21T04:13:02;33.63;;;14.20;;
59950;SDS011;45812;53.540;9.774;2024-02-21T04:15:27;35.90;;;14.65;;
59950;SDS011;45812;53.540;9.774;2024-02-21T04:17:52;35.10;;;13.95;;
59950;SDS011;45812;53.540;9.774;2024-02-21T04:20:18;30.27;;;11.95;;
59950;SDS011;45812;53.540;9.774;2024-02-21T04:22:43;36.40;;;14.70;;
59950;SDS011;45812;53.540;9.774;2024-02-21T04:25:09;30.90;;;12.32;;
59950;SDS011;45812;53.540;9.774;2024-02-21T04:27:35;35.30;;;12.60;;
59950;SDS011;45812;53.540;9.774;2024-02-21T04:30:01;33.25;;;13.00;;
59950;SDS011;45812;53.540;9.774;2024-02-21T04:32:26;29.88;;;13.02;;
59950;SDS011;45812;53.540;9.774;2024-02-21T04:34:52;27.15;;;11.13;;
59950;SDS011;45812;53.540;9.774;2024-02-21T04:37:18;28.25;;;10.35;;
59950;SDS011;45812;53.540;9.774;2024-02-21T04:39:43;28.30;;;11.38;;
59950;SDS011;45812;53.540;9.774;2024-02-21T04:42:08;22.38;;;10.85;;
59950;SDS011;45812;53.540;9.774;2024-02-21T04:44:34;26.35;;;10.68;;
59950;SDS011;45812;53.540;9.774;2024-02-21T04:46:59;26.38;;;11.10;;
59950;SDS011;45812;53.540;9.774;2024-02-21T04:49:24;21.45;;;10.57;;
59950;SDS011;45812;53.540;9.774;2024-02-21T04:51:50;19.65;;;10.20;;
59950;SDS011;45812;53.540;9.774;2024-02-21T04:54:15;23.40;;;10.30;;
59950;SDS011;45812;53.540;9.774;2024-02-21T04:56:40;24.00;;;10.07;;
59950;SDS011;45812;53.540;9.774;2024-02-21T04:59:05;21.92;;;9.38;;
59950;SDS011;45812;53.540;9.774;2024-02-21T05:01:31;21.98;;;9.95;;
59950;SDS011;45812;53.540;9.774;2024-02-21T05:03:56;21.10;;;9.57;;
59950;SDS011;45812;53.540;9.774;2024-02-21T05:06:21;23.17;;;9.80;;
59950;SDS011;45812;53.540;9.774;2024-02-21T05:08:46;22.13;;;8.88;;
59950;SDS011;45812;53.540;9.774;2024-02-21T05:11:12;19.90;;;8.52;;
59950;SDS011;45812;53.540;9.774;2024-02-21T05:13:37;24.90;;;9.48;;
59950;SDS011;45812;53.540;9.774;2024-02-21T05:16:03;22.98;;;9.90;;
59950;SDS011;45812;53.540;9.774;2024-02-21T05:18:28;18.95;;;8.45;;
59950;SDS011;45812;53.540;9.774;2024-02-21T05:20:54;21.10;;;8.75;;
59950;SDS011;45812;53.540;9.774;2024-02-21T05:23:19;17.83;;;8.43;;
59950;SDS011;45812;53.540;9.774;2024-02-21T05:25:44;21.20;;;8.32;;
59950;SDS011;45812;53.540;9.774;2024-02-21T05:28:09;17.88;;;8.52;;
59950;SDS011;45812;53.540;9.774;2024-02-21T05:30:35;20.30;;;8.80;;
59950;SDS011;45812;53.540;9.774;2024-02-21T05:33:03;18.60;;;7.80;;
59950;SDS011;45812;53.540;9.774;2024-02-21T05:35:32;18.77;;;8.43;;
59950;SDS011;45812;53.540;9.774;2024-02-21T05:37:57;20.35;;;8.13;;
59950;SDS011;45812;53.540;9.774;2024-02-21T05:40:24;19.92;;;8.57;;
59950;SDS011;45812;53.540;9.774;2024-02-21T05:42:50;18.45;;;7.75;;
59950;SDS011;45812;53.540;9.774;2024-02-21T05:45:16;12.95;;;6.82;;
59950;SDS011;45812;53.540;9.774;2024-02-21T05:47:42;16.52;;;6.72;;
59950;SDS011;45812;53.540;9.774;2024-02-21T05:50:07;16.70;;;7.18;;
59950;SDS011;45812;53.540;9.774;2024-02-21T05:52:33;15.57;;;6.85;;
59950;SDS011;45812;53.540;9.774;2024-02-21T05:54:59;16.33;;;7.07;;
59950;SDS011;45812;53.540;9.774;2024-02-21T05:57:24;15.65;;;7.18;;
59950;SDS011;45812;53.540;9.774;2024-02-21T05:59:49;15.30;;;6.97;;
59950;SDS011;45812;53.540;9.774;2024-02-21T06:02:14;12.57;;;6.00;;
59950;SDS011;45812;53.540;9.774;2024-02-21T06:04:39;12.57;;;6.18;;
59950;SDS011;45812;53.540;9.774;2024-02-21T06:07:05;15.32;;;6.25;;
59950;SDS011;45812;53.540;9.774;2024-02-21T06:09:30;12.10;;;5.75;;
59950;SDS011;45812;53.540;9.774;2024-02-21T06:11:56;16.42;;;6.20;;
59950;SDS011;45812;53.540;9.774;2024-02-21T06:14:22;11.73;;;5.75;;
59950;SDS011;45812;53.540;9.774;2024-02-21T06:16:47;11.43;;;5.47;;
59950;SDS011;45812;53.540;9.774;2024-02-21T06:19:12;13.13;;;5.60;;
59950;SDS011;45812;53.540;9.774;2024-02-21T06:21:37;13.85;;;5.30;;
59950;SDS011;45812;53.540;9.774;2024-02-21T06:24:03;12.25;;;5.75;;
59950;SDS011;45812;53.540;9.774;2024-02-21T06:26:28;10.57;;;5.10;;
59950;SDS011;45812;53.540;9.774;2024-02-21T06:28:54;11.27;;;5.35;;
59950;SDS011;45812;53.540;9.774;2024-02-21T06:31:19;8.38;;;4.68;;
59950;SDS011;45812;53.540;9.774;2024-02-21T06:33:44;12.43;;;5.35;;
59950;SDS011;45812;53.540;9.774;2024-02-21T06:36:09;12.02;;;4.65;;
59950;SDS011;45812;53.540;9.774;2024-02-21T06:38:35;9.77;;;4.68;;
59950;SDS011;45812;53.540;9.774;2024-02-21T06:41:00;10.20;;;4.72;;
59950;SDS011;45812;53.540;9.774;2024-02-21T06:43:27;9.07;;;4.25;;
59950;SDS011;45812;53.540;9.774;2024-02-21T06:45:52;6.85;;;4.32;;
59950;SDS011;45812;53.540;9.774;2024-02-21T06:48:19;10.02;;;5.68;;
59950;SDS011;45812;53.540;9.774;2024-02-21T06:50:44;9.05;;;4.55;;
59950;SDS011;45812;53.540;9.774;2024-02-21T06:53:09;8.95;;;4.45;;
59950;SDS011;45812;53.540;9.774;2024-02-21T06:55:35;11.38;;;5.45;;
59950;SDS011;45812;53.540;9.774;2024-02-21T06:58:00;13.30;;;6.65;;
59950;SDS011;45812;53.540;9.774;2024-02-21T07:00:26;9.63;;;5.20;;
59950;SDS011;45812;53.540;9.774;2024-02-21T07:02:52;12.10;;;5.68;;
59950;SDS011;45812;53.540;9.774;2024-02-21T07:05:17;12.30;;;5.10;;
59950;SDS011;45812;53.540;9.774;2024-02-21T07:07:43;9.48;;;4.88;;
59950;SDS011;45812;53.540;9.774;2024-02-21T07:10:08;10.38;;;4.90;;
59950;SDS011;45812;53.540;9.774;2024-02-21T07:12:33;10.45;;;4.90;;
59950;SDS011;45812;53.540;9.774;2024-02-21T07:15:00;8.90;;;4.85;;
59950;SDS011;45812;53.540;9.774;2024-02-21T07:17:25;7.95;;;4.47;;
59950;SDS011;45812;53.540;9.774;2024-02-21T07:19:51;10.07;;;5.13;;
59950;SDS011;45812;53.540;9.774;2024-02-21T07:22:16;9.70;;;4.47;;
59950;SDS011;45812;53.540;9.774;2024-02-21T07:24:41;10.25;;;4.88;;
59950;SDS011;45812;53.540;9.774;2024-02-21T07:27:07;8.07;;;4.40;;
59950;SDS011;45812;53.540;9.774;2024-02-21T07:29:32;10.20;;;4.80;;
59950;SDS011;45812;53.540;9.774;2024-02-21T07:31:57;13.25;;;5.50;;
59950;SDS011;45812;53.540;9.774;2024-02-21T07:34:22;8.95;;;4.82;;
59950;SDS011;45812;53.540;9.774;2024-02-21T07:36:48;9.00;;;4.90;;
59950;SDS011;45812;53.540;9.774;2024-02-21T07:39:13;8.35;;;4.32;;
59950;SDS011;45812;53.540;9.774;2024-02-21T07:41:38;8.23;;;4.47;;
59950;SDS011;45812;53.540;9.774;2024-02-21T07:44:05;7.75;;;4.25;;
59950;SDS011;45812;53.540;9.774;2024-02-21T07:46:30;10.43;;;5.35;;
59950;SDS011;45812;53.540;9.774;2024-02-21T07:48:55;8.00;;;4.43;;
59950;SDS011;45812;53.540;9.774;2024-02-21T07:51:21;6.32;;;3.53;;
59950;SDS011;45812;53.540;9.774;2024-02-21T07:53:46;6.57;;;3.78;;
59950;SDS011;45812;53.540;9.774;2024-02-21T07:56:12;5.35;;;2.92;;
59950;SDS011;45812;53.540;9.774;2024-02-21T07:58:39;6.35;;;2.30;;
59950;SDS011;45812;53.540;9.774;2024-02-21T08:01:05;4.10;;;2.10;;
59950;SDS011;45812;53.540;9.774;2024-02-21T08:03:30;4.35;;;2.85;;
59950;SDS011;45812;53.540;9.774;2024-02-21T08:05:56;5.13;;;2.67;;
59950;SDS011;45812;53.540;9.774;2024-02-21T08:08:21;4.97;;;2.85;;
59950;SDS011;45812;53.540;9.774;2024-02-21T08:10:47;9.55;;;2.83;;
59950;SDS011;45812;53.540;9.774;2024-02-21T08:13:13;4.93;;;2.65;;
59950;SDS011;45812;53.540;9.774;2024-02-21T08:15:38;8.05;;;2.67;;
59950;SDS011;45812;53.540;9.774;2024-02-21T08:18:04;5.18;;;2.25;;
59950;SDS011;45812;53.540;9.774;2024-02-21T08:20:30;13.90;;;2.78;;
59950;SDS011;45812;53.540;9.774;2024-02-21T08:22:55;8.38;;;2.40;;
59950;SDS011;45812;53.540;9.774;2024-02-21T08:25:21;11.20;;;2.55;;
59950;SDS011;45812;53.540;9.774;2024-02-21T08:27:46;8.88;;;3.85;;
59950;SDS011;45812;53.540;9.774;2024-02-21T08:30:11;9.57;;;3.03;;
59950;SDS011;45812;53.540;9.774;2024-02-21T08:32:37;10.07;;;2.58;;
59950;SDS011;45812;53.540;9.774;2024-02-21T08:35:02;7.30;;;2.67;;
59950;SDS011;45812;53.540;9.774;2024-02-21T08:37:28;4.97;;;3.08;;
59950;SDS011;45812;53.540;9.774;2024-02-21T08:39:53;8.23;;;2.28;;
59950;SDS011;45812;53.540;9.774;2024-02-21T08:42:19;8.80;;;2.42;;
59950;SDS011;45812;53.540;9.774;2024-02-21T08:44:44;9.25;;;2.58;;
59950;SDS011;45812;53.540;9.774;2024-02-21T08:47:09;6.40;;;1.95;;
59950;SDS011;45812;53.540;9.774;2024-02-21T08:49:35;16.70;;;3.53;;
59950;SDS011;45812;53.540;9.774;2024-02-21T08:52:01;8.48;;;2.60;;
59950;SDS011;45812;53.540;9.774;2024-02-21T08:54:27;5.40;;;1.75;;
59950;SDS011;45812;53.540;9.774;2024-02-21T08:56:53;6.68;;;2.28;;
59950;SDS011;45812;53.540;9.774;2024-02-21T08:59:19;11.20;;;2.40;;
59950;SDS011;45812;53.540;9.774;2024-02-21T09:01:45;18.23;;;3.50;;
59950;SDS011;45812;53.540;9.774;2024-02-21T09:04:10;14.20;;;2.20;;
59950;SDS011;45812;53.540;9.774;2024-02-21T09:06:35;9.98;;;2.50;;
59950;SDS011;45812;53.540;9.774;2024-02-21T09:09:04;10.50;;;3.08;;
59950;SDS011;45812;53.540;9.774;2024-02-21T09:11:29;5.72;;;2.05;;
59950;SDS011;45812;53.540;9.774;2024-02-21T09:13:54;14.00;;;2.95;;
59950;SDS011;45812;53.540;9.774;2024-02-21T09:16:20;13.10;;;2.90;;
59950;SDS011;45812;53.540;9.774;2024-02-21T09:18:45;8.27;;;2.97;;
59950;SDS011;45812;53.540;9.774;2024-02-21T09:21:11;13.45;;;2.40;;
59950;SDS011;45812;53.540;9.774;2024-02-21T09:23:36;8.20;;;2.22;;
59950;SDS011;45812;53.540;9.774;2024-02-21T09:26:02;6.60;;;1.98;;
59950;SDS011;45812;53.540;9.774;2024-02-21T09:28:29;8.48;;;2.30;;
59950;SDS011;45812;53.540;9.774;2024-02-21T09:30:54;6.60;;;2.22;;
59950;SDS011;45812;53.540;9.774;2024-02-21T09:33:19;6.68;;;1.58;;
59950;SDS011;45812;53.540;9.774;2024-02-21T09:35:45;10.40;;;2.30;;
59950;SDS011;45812;53.540;9.774;2024-02-21T09:38:10;6.45;;;2.00;;
59950;SDS011;45812;53.540;9.774;2024-02-21T09:40:35;7.88;;;2.92;;
59950;SDS011;45812;53.540;9.774;2024-02-21T09:43:03;7.43;;;3.45;;
59950;SDS011;45812;53.540;9.774;2024-02-21T09:45:31;7.65;;;3.75;;
59950;SDS011;45812;53.540;9.774;2024-02-21T09:50:50;6.88;;;4.00;;
59950;SDS011;45812;53.540;9.774;2024-02-21T09:53:16;7.00;;;4.40;;
59950;SDS011;45812;53.540;9.774;2024-02-21T09:55:43;7.60;;;4.50;;
59950;SDS011;45812;53.540;9.774;2024-02-21T09:58:09;11.18;;;5.57;;
59950;SDS011;45812;53.540;9.774;2024-02-21T10:00:35;11.70;;;6.05;;
59950;SDS011;45812;53.540;9.774;2024-02-21T10:03:01;16.25;;;6.72;;
59950;SDS011;45812;53.540;9.774;2024-02-21T10:05:32;13.90;;;6.97;;
59950;SDS011;45812;53.540;9.774;2024-02-21T10:07:58;16.38;;;7.88;;
59950;SDS011;45812;53.540;9.774;2024-02-21T10:10:23;18.33;;;7.68;;
59950;SDS011;45812;53.540;9.774;2024-02-21T10:12:51;19.23;;;8.07;;
59950;SDS011;45812;53.540;9.774;2024-02-21T10:15:20;24.10;;;10.68;;
59950;SDS011;45812;53.540;9.774;2024-02-21T10:17:49;25.10;;;10.32;;
59950;SDS011;45812;53.540;9.774;2024-02-21T10:20:35;26.13;;;11.48;;
59950;SDS011;45812;53.540;9.774;2024-02-21T10:23:01;30.45;;;13.77;;
59950;SDS011;45812;53.540;9.774;2024-02-21T10:25:28;30.33;;;13.82;;
59950;SDS011;45812;53.540;9.774;2024-02-21T10:27:53;30.02;;;13.43;;
59950;SDS011;45812;53.540;9.774;2024-02-21T10:30:19;31.02;;;14.73;;
59950;SDS011;45812;53.540;9.774;2024-02-21T10:32:49;33.70;;;14.55;;
59950;SDS011;45812;53.540;9.774;2024-02-21T10:35:24;30.52;;;14.50;;
59950;SDS011;45812;53.540;9.774;2024-02-21T10:37:50;33.85;;;14.10;;
59950;SDS011;45812;53.540;9.774;2024-02-21T10:40:20;30.75;;;13.68;;
59950;SDS011;45812;53.540;9.774;2024-02-21T10:42:45;34.65;;;13.82;;
59950;SDS011;45812;53.540;9.774;2024-02-21T10:45:12;30.17;;;13.98;;
59950;SDS011;45812;53.540;9.774;2024-02-21T10:47:37;33.15;;;14.63;;
59950;SDS011;45812;53.540;9.774;2024-02-21T10:50:04;28.63;;;12.27;;
59950;SDS011;45812;53.540;9.774;2024-02-21T10:52:48;29.05;;;13.13;;
59950;SDS011;45812;53.540;9.774;2024-02-21T10:55:20;32.38;;;13.43;;
59950;SDS011;45812;53.540;9.774;2024-02-21T10:57:51;26.65;;;11.68;;
59950;SDS011;45812;53.540;9.774;2024-02-21T11:00:17;28.75;;;11.65;;
59950;SDS011;45812;53.540;9.774;2024-02-21T11:02:43;30.17;;;10.93;;
59950;SDS011;45812;53.540;9.774;2024-02-21T11:05:10;29.58;;;11.68;;
59950;SDS011;45812;53.540;9.774;2024-02-21T11:07:35;23.83;;;10.45;;
59950;SDS011;45812;53.540;9.774;2024-02-21T11:10:02;23.40;;;9.40;;
59950;SDS011;45812;53.540;9.774;2024-02-21T11:12:28;23.30;;;10.05;;
59950;SDS011;45812;53.540;9.774;2024-02-21T11:15:06;23.10;;;9.32;;
59950;SDS011;45812;53.540;9.774;2024-02-21T11:17:32;24.70;;;8.88;;
59950;SDS011;45812;53.540;9.774;2024-02-21T11:19:57;20.17;;;8.40;;
59950;SDS011;45812;53.540;9.774;2024-02-21T11:22:24;19.83;;;8.88;;
59950;SDS011;45812;53.540;9.774;2024-02-21T11:24:54;24.50;;;8.88;;
59950;SDS011;45812;53.540;9.774;2024-02-21T11:27:21;21.40;;;8.45;;
59950;SDS011;45812;53.540;9.774;2024-02-21T11:29:54;20.67;;;8.75;;
59950;SDS011;45812;53.540;9.774;2024-02-21T11:32:21;19.35;;;7.93;;
59950;SDS011;45812;53.540;9.774;2024-02-21T11:34:56;21.65;;;9.18;;
59950;SDS011;45812;53.540;9.774;2024-02-21T11:37:26;18.63;;;7.40;;
59950;SDS011;45812;53.540;9.774;2024-02-21T11:39:52;20.30;;;8.93;;
59950;SDS011;45812;53.540;9.774;2024-02-21T11:42:18;21.65;;;8.23;;
59950;SDS011;45812;53.540;9.774;2024-02-21T11:44:43;20.88;;;8.23;;
59950;SDS011;45812;53.540;9.774;2024-02-21T11:47:08;19.63;;;8.18;;
59950;SDS011;45812;53.540;9.774;2024-02-21T11:49:46;14.55;;;6.82;;
59950;SDS011;45812;53.540;9.774;2024-02-21T11:52:14;18.98;;;8.05;;
59950;SDS011;45812;53.540;9.774;2024-02-21T11:54:40;20.77;;;8.00;;
59950;SDS011;45812;53.540;9.774;2024-02-21T11:57:06;19.60;;;9.15;;
59950;SDS011;45812;53.540;9.774;2024-02-21T11:59:32;26.48;;;9.25;;
59950;SDS011;45812;53.540;9.774;2024-02-21T12:01:58;16.90;;;8.13;;
59950;SDS011;45812;53.540;9.774;2024-02-21T12:04:28;22.02;;;8.07;;
59950;SDS011;45812;53.540;9.774;2024-02-21T12:06:56;19.60;;;8.27;;
59950;SDS011;45812;53.540;9.774;2024-02-21T12:09:22;18.20;;;7.90;;
59950;SDS011;45812;53.540;9.774;2024-02-21T12:11:56;18.30;;;7.55;;
59950;SDS011;45812;53.540;9.774;2024-02-21T12:14:30;19.30;;;7.97;;
59950;SDS011;45812;53.540;9.774;2024-02-21T12:16:56;20.13;;;7.90;;
59950;SDS011;45812;53.540;9.774;2024-02-21T12:19:22;16.75;;;7.55;;
59950;SDS011;45812;53.540;9.774;2024-02-21T12:21:48;19.83;;;9.13;;
59950;SDS011;45812;53.540;9.774;2024-02-21T12:24:15;22.83;;;9.35;;
59950;SDS011;45812;53.540;9.774;2024-02-21T12:26:46;26.42;;;8.68;;
59950;SDS011;45812;53.540;9.774;2024-02-21T12:29:11;21.42;;;8.95;;
59950;SDS011;45812;53.540;9.774;2024-02-21T12:31:37;31.00;;;9.18;;
59950;SDS011;45812;53.540;9.774;2024-02-21T12:34:03;26.70;;;9.52;;
59950;SDS011;45812;53.540;9.774;2024-02-21T12:36:29;21.10;;;9.00;;
59950;SDS011;45812;53.540;9.774;2024-02-21T12:38:55;20.10;;;8.13;;
59950;SDS011;45812;53.540;9.774;2024-02-21T12:41:20;21.77;;;9.10;;
59950;SDS011;45812;53.540;9.774;2024-02-21T12:43:45;27.88;;;9.35;;
59950;SDS011;45812;53.540;9.774;2024-02-21T12:46:10;24.80;;;9.00;;
59950;SDS011;45812;53.540;9.774;2024-02-21T12:48:36;34.00;;;9.48;;
59950;SDS011;45812;53.540;9.774;2024-02-21T12:51:01;20.98;;;8.43;;
59950;SDS011;45812;53.540;9.774;2024-02-21T12:53:26;23.40;;;9.55;;
59950;SDS011;45812;53.540;9.774;2024-02-21T12:55:51;19.02;;;8.68;;
59950;SDS011;45812;53.540;9.774;2024-02-21T12:58:17;18.90;;;8.75;;
59950;SDS011;45812;53.540;9.774;2024-02-21T13:00:42;29.42;;;9.85;;
59950;SDS011;45812;53.540;9.774;2024-02-21T13:03:08;25.30;;;9.75;;
59950;SDS011;45812;53.540;9.774;2024-02-21T13:05:37;19.67;;;8.52;;
59950;SDS011;45812;53.540;9.774;2024-02-21T13:08:03;18.42;;;8.98;;
59950;SDS011;45812;53.540;9.774;2024-02-21T13:10:30;20.08;;;9.70;;
59950;SDS011;45812;53.540;9.774;2024-02-21T13:12:55;23.77;;;9.80;;
59950;SDS011;45812;53.540;9.774;2024-02-21T13:15:20;17.65;;;7.75;;
59950;SDS011;45812;53.540;9.774;2024-02-21T13:17:45;21.75;;;8.25;;
59950;SDS011;45812;53.540;9.774;2024-02-21T13:20:11;24.08;;;8.20;;
59950;SDS011;45812;53.540;9.774;2024-02-21T13:22:37;18.50;;;8.23;;
59950;SDS011;45812;53.540;9.774;2024-02-21T13:25:02;22.52;;;8.38;;
59950;SDS011;45812;53.540;9.774;2024-02-21T13:27:28;20.48;;;8.43;;
59950;SDS011;45812;53.540;9.774;2024-02-21T13:29:53;23.42;;;8.93;;
59950;SDS011;45812;53.540;9.774;2024-02-21T13:32:19;20.70;;;8.70;;
59950;SDS011;45812;53.540;9.774;2024-02-21T13:34:44;22.88;;;8.30;;
59950;SDS011;45812;53.540;9.774;2024-02-21T13:37:10;19.52;;;7.25;;
59950;SDS011;45812;53.540;9.774;2024-02-21T13:39:35;19.20;;;7.10;;
59950;SDS011;45812;53.540;9.774;2024-02-21T13:42:01;23.45;;;8.13;;
59950;SDS011;45812;53.540;9.774;2024-02-21T13:44:27;19.20;;;6.97;;
59950;SDS011;45812;53.540;9.774;2024-02-21T13:46:52;16.83;;;7.03;;
59950;SDS011;45812;53.540;9.774;2024-02-21T13:49:18;16.30;;;7.70;;
59950;SDS011;45812;53.540;9.774;2024-02-21T13:51:43;17.50;;;8.20;;
59950;SDS011;45812;53.540;9.774;2024-02-21T13:54:09;20.73;;;7.63;;
59950;SDS011;45812;53.540;9.774;2024-02-21T13:56:36;14.43;;;7.22;;
59950;SDS011;45812;53.540;9.774;2024-02-21T13:59:01;17.58;;;7.30;;
59950;SDS011;45812;53.540;9.774;2024-02-21T14:01:26;12.95;;;7.22;;
59950;SDS011;45812;53.540;9.774;2024-02-21T14:03:54;21.80;;;7.90;;
59950;SDS011;45812;53.540;9.774;2024-02-21T14:06:20;18.50;;;7.05;;
59950;SDS011;45812;53.540;9.774;2024-02-21T14:08:45;19.73;;;7.53;;
59950;SDS011;45812;53.540;9.774;2024-02-21T14:11:10;18.25;;;6.68;;
59950;SDS011;45812;53.540;9.774;2024-02-21T14:13:36;14.02;;;6.38;;
59950;SDS011;45812;53.540;9.774;2024-02-21T14:16:01;19.63;;;6.50;;
59950;SDS011;45812;53.540;9.774;2024-02-21T14:18:27;17.05;;;7.30;;
59950;SDS011;45812;53.540;9.774;2024-02-21T14:20:52;19.48;;;6.47;;
59950;SDS011;45812;53.540;9.774;2024-02-21T14:23:17;13.88;;;5.90;;
59950;SDS011;45812;53.540;9.774;2024-02-21T14:25:43;13.05;;;5.85;;